Time,TemperatureF,DewpointF,PressureIn,WindDirection,WindDirectionDegrees,WindSpeedMPH,WindSpeedGustMPH,Humidity,HourlyPrecipIn,Conditions,Clouds,dailyrainin,SoftwareType,DateUTC
2013-03-07 00:01:00,42.0,38.0,-100.00,ENE,60,1.0,2.0,87,-99.99,,,-99.99,,2013-03-07 08:01:00,
2013-03-07 00:11:00,43.0,39.0,-100.00,NE,39,1.0,2.0,86,-99.99,,,-99.99,,2013-03-07 08:11:00,
2013-03-07 00:22:00,42.0,38.0,-100.00,NE,56,1.0,2.0,86,-99.99,,,-99.99,,2013-03-07 08:22:00,
2013-03-07 00:32:00,42.0,38.0,-100.00,NE,43,2.0,2.0,87,-99.99,,,-99.99,,2013-03-07 08:32:00,
2013-03-07 00:43:00,44.0,39.0,-100.00,NNW,328,1.0,2.0,84,-99.99,,,-99.99,,2013-03-07 08:43:00,
2013-03-07 00:52:00,44.0,39.0,-100.00,WNW,296,2.0,3.0,82,-99.99,,,-99.99,,2013-03-07 08:52:00,
2013-03-07 01:02:00,44.0,39.0,-100.00,WNW,285,2.0,4.0,83,-99.99,,,-99.99,,2013-03-07 09:02:00,
2013-03-07 01:11:00,43.0,38.0,-100.00,WNW,289,3.0,4.0,84,-99.99,,,-99.99,,2013-03-07 09:11:00,
2013-03-07 01:21:00,44.0,39.0,-100.00,WNW,294,3.0,3.0,84,-99.99,,,-99.99,,2013-03-07 09:21:00,
2013-03-07 01:32:00,43.0,38.0,-100.00,North,2,2.0,2.0,84,-99.99,,,-99.99,,2013-03-07 09:32:00,
2013-03-07 01:42:00,42.0,38.0,-100.00,NE,55,1.0,1.0,87,-99.99,,,-99.99,,2013-03-07 09:42:00,
2013-03-07 01:52:00,43.0,39.0,-100.00,NE,46,1.0,1.0,87,-99.99,,,-99.99,,2013-03-07 09:52:00,
2013-03-07 02:01:00,43.0,39.0,-100.00,NE,50,0.0,1.0,87,-99.99,,,-99.99,,2013-03-07 10:01:00,
2013-03-07 02:11:00,43.0,39.0,-100.00,NE,40,1.0,2.0,87,-99.99,,,-99.99,,2013-03-07 10:11:00,
2013-03-07 02:22:00,43.0,40.0,-100.00,ESE,112,1.0,2.0,88,-99.99,,,-99.99,,2013-03-07 10:22:00,
2013-03-07 02:32:00,42.0,39.0,-100.00,East,85,1.0,2.0,89,-99.99,,,-99.99,,2013-03-07 10:32:00,
2013-03-07 02:42:00,42.0,39.0,-100.00,NE,48,1.0,4.0,89,-99.99,,,-99.99,,2013-03-07 10:42:00,
2013-03-07 02:52:00,43.0,40.0,-100.00,ENE,65,2.0,4.0,88,-99.99,,,-99.99,,2013-03-07 10:52:00,
2013-03-07 03:01:00,43.0,39.0,-100.00,East,96,2.0,3.0,87,-99.99,,,-99.99,,2013-03-07 11:01:00,
2013-03-07 03:11:00,43.0,40.0,-100.00,East,83,2.0,3.0,88,-99.99,,,-99.99,,2013-03-07 11:11:00,
2013-03-07 03:22:00,43.0,39.0,-100.00,ENE,68,2.0,3.0,87,-99.99,,,-99.99,,2013-03-07 11:22:00,
2013-03-07 03:32:00,43.0,39.0,-100.00,NE,55,2.0,3.0,85,-99.99,,,-99.99,,2013-03-07 11:32:00,
2013-03-07 03:42:00,44.0,39.0,-100.00,NNE,19,2.0,3.0,84,-99.99,,,-99.99,,2013-03-07 11:42:00,
2013-03-07 03:52:00,44.0,40.0,-100.00,NW,311,2.0,3.0,85,-99.99,,,-99.99,,2013-03-07 11:52:00,
2013-03-07 04:01:00,44.0,39.0,-100.00,NW,319,2.0,3.0,83,-99.99,,,-99.99,,2013-03-07 12:01:00,
2013-03-07 04:11:00,45.0,40.0,-100.00,NW,309,2.0,3.0,81,-99.99,,,-99.99,,2013-03-07 12:11:00,
2013-03-07 04:21:00,44.0,39.0,-100.00,West,265,2.0,3.0,83,-99.99,,,-99.99,,2013-03-07 12:21:00,
2013-03-07 04:32:00,44.0,40.0,-100.00,WSW,246,1.0,7.0,85,-99.99,,,-99.99,,2013-03-07 12:32:00,
2013-03-07 04:42:00,43.0,39.0,-100.00,WSW,249,3.0,8.0,87,-99.99,,,-99.99,,2013-03-07 12:42:00,
2013-03-07 04:52:00,43.0,40.0,-100.00,WSW,258,4.0,8.0,88,-99.99,,,-99.99,,2013-03-07 12:52:00,
2013-03-07 05:02:00,43.0,40.0,-100.00,West,267,4.0,7.0,89,-99.99,,,-99.99,,2013-03-07 13:02:00,
2013-03-07 05:12:00,42.0,39.0,-100.00,West,259,4.0,8.0,90,-99.99,,,-99.99,,2013-03-07 13:12:00,
2013-03-07 05:22:00,42.0,39.0,-100.00,WSW,253,4.0,6.0,90,-99.99,,,-99.99,,2013-03-07 13:22:00,
2013-03-07 05:32:00,42.0,39.0,-100.00,NW,322,3.0,5.0,90,-99.99,,,-99.99,,2013-03-07 13:32:00,
2013-03-07 05:42:00,42.0,39.0,-100.00,NW,322,3.0,5.0,90,-99.99,,,-99.99,,2013-03-07 13:42:00,
2013-03-07 05:52:00,42.0,39.0,-100.00,NNE,23,1.0,4.0,90,-99.99,,,-99.99,,2013-03-07 13:52:00,
2013-03-07 06:01:00,42.0,39.0,-100.00,NNE,15,2.0,3.0,89,-99.99,,,-99.99,,2013-03-07 14:01:00,
2013-03-07 06:11:00,42.0,39.0,-100.00,North,6,1.0,1.0,90,-99.99,,,-99.99,,2013-03-07 14:11:00,
2013-03-07 06:21:00,43.0,40.0,-100.00,NE,49,0.0,3.0,89,-99.99,,,-99.99,,2013-03-07 14:21:00,
2013-03-07 06:32:00,43.0,40.0,-100.00,ENE,68,2.0,3.0,90,-99.99,,,-99.99,,2013-03-07 14:32:00,
2013-03-07 06:42:00,43.0,40.0,-100.00,NE,51,1.0,3.0,89,-99.99,,,-99.99,,2013-03-07 14:42:00,
2013-03-07 06:52:00,43.0,39.0,-100.00,NNW,345,2.0,3.0,86,-99.99,,,-99.99,,2013-03-07 14:52:00,
2013-03-07 07:02:00,43.0,39.0,-100.00,NW,308,1.0,2.0,86,-99.99,,,-99.99,,2013-03-07 15:02:00,
2013-03-07 07:11:00,44.0,40.0,-100.00,West,260,2.0,5.0,87,-99.99,,,-99.99,,2013-03-07 15:11:00,
2013-03-07 07:22:00,43.0,40.0,-100.00,WSW,240,2.0,5.0,89,-99.99,,,-99.99,,2013-03-07 15:22:00,
2013-03-07 07:32:00,44.0,40.0,-100.00,WSW,248,3.0,3.0,87,-99.99,,,-99.99,,2013-03-07 15:32:00,
2013-03-07 07:42:00,44.0,40.0,-100.00,SSW,212,1.0,2.0,87,-99.99,,,-99.99,,2013-03-07 15:42:00,
2013-03-07 07:52:00,44.0,40.0,-100.00,SSW,211,1.0,3.0,87,-99.99,,,-99.99,,2013-03-07 15:52:00,
2013-03-07 08:01:00,44.0,40.0,-100.00,NW,324,1.0,2.0,86,-99.99,,,-99.99,,2013-03-07 16:01:00,
2013-03-07 08:11:00,44.0,40.0,-100.00,SE,143,0.0,2.0,86,-99.99,,,-99.99,,2013-03-07 16:11:00,
2013-03-07 08:21:00,45.0,41.0,-100.00,SE,128,1.0,2.0,86,-99.99,,,-99.99,,2013-03-07 16:21:00,
2013-03-07 08:32:00,45.0,41.0,-100.00,SSE,163,1.0,3.0,86,-99.99,,,-99.99,,2013-03-07 16:32:00,
2013-03-07 08:42:00,45.0,41.0,-100.00,South,175,1.0,3.0,86,-99.99,,,-99.99,,2013-03-07 16:42:00,
2013-03-07 08:52:00,45.0,41.0,-100.00,SSW,193,2.0,5.0,87,-99.99,,,-99.99,,2013-03-07 16:52:00,
2013-03-07 09:01:00,45.0,42.0,-100.00,SSW,210,2.0,5.0,89,-99.99,,,-99.99,,2013-03-07 17:01:00,
2013-03-07 09:11:00,45.0,42.0,-100.00,SSE,154,2.0,2.0,90,-99.99,,,-99.99,,2013-03-07 17:11:00,
2013-03-07 09:22:00,46.0,43.0,-100.00,SSE,147,1.0,2.0,89,-99.99,,,-99.99,,2013-03-07 17:22:00,
2013-03-07 09:32:00,46.0,43.0,-100.00,SE,137,1.0,3.0,89,-99.99,,,-99.99,,2013-03-07 17:32:00,
2013-03-07 09:42:00,47.0,44.0,-100.00,East,90,1.0,3.0,88,-99.99,,,-99.99,,2013-03-07 17:42:00,
2013-03-07 09:52:00,47.0,43.0,-100.00,SE,143,2.0,4.0,86,-99.99,,,-99.99,,2013-03-07 17:52:00,
2013-03-07 10:02:00,48.0,43.0,-100.00,SW,221,1.0,4.0,84,-99.99,,,-99.99,,2013-03-07 18:02:00,
2013-03-07 10:11:00,48.0,43.0,-100.00,SW,219,2.0,4.0,84,-99.99,,,-99.99,,2013-03-07 18:11:00,
2013-03-07 10:21:00,48.0,43.0,-100.00,SSW,194,2.0,6.0,84,-99.99,,,-99.99,,2013-03-07 18:21:00,
2013-03-07 10:31:00,48.0,44.0,-100.00,SSE,158,3.0,6.0,86,-99.99,,,-99.99,,2013-03-07 18:31:00,
2013-03-07 10:42:00,48.0,43.0,-100.00,SSE,158,2.0,6.0,84,-99.99,,,-99.99,,2013-03-07 18:42:00,
2013-03-07 10:52:00,49.0,43.0,-100.00,South,178,2.0,10.0,80,-99.99,,,-99.99,,2013-03-07 18:52:00,
2013-03-07 11:02:00,49.0,43.0,-100.00,SSE,163,4.0,10.0,80,-99.99,,,-99.99,,2013-03-07 19:02:00,
2013-03-07 11:11:00,51.0,43.0,-100.00,South,184,5.0,10.0,74,-99.99,,,-99.99,,2013-03-07 19:11:00,
2013-03-07 11:21:00,49.0,43.0,-100.00,SW,223,5.0,11.0,81,-99.99,,,-99.99,,2013-03-07 19:21:00,
2013-03-07 11:33:00,48.0,44.0,-100.00,WSW,251,6.0,8.0,87,-99.99,,,-99.99,,2013-03-07 19:33:00,
2013-03-07 11:42:00,49.0,44.0,-100.00,SW,235,4.0,7.0,84,-99.99,,,-99.99,,2013-03-07 19:42:00,
2013-03-07 11:52:00,51.0,40.0,-100.00,SW,222,7.0,16.0,67,-99.99,,,-99.99,,2013-03-07 19:52:00,
2013-03-07 12:01:00,51.0,40.0,-100.00,SW,222,7.0,16.0,67,-99.99,,,-99.99,,2013-03-07 20:01:00,
2013-03-07 12:12:00,50.0,41.0,-100.00,SW,215,10.0,13.0,71,-99.99,,,-99.99,,2013-03-07 20:12:00,
2013-03-07 12:21:00,50.0,41.0,-100.00,SW,235,8.0,16.0,71,-99.99,,,-99.99,,2013-03-07 20:21:00,
2013-03-07 12:32:00,50.0,40.0,-100.00,SW,226,10.0,17.0,68,-99.99,,,-99.99,,2013-03-07 20:32:00,
2013-03-07 12:42:00,51.0,39.0,-100.00,SW,229,10.0,15.0,64,-99.99,,,-99.99,,2013-03-07 20:42:00,
2013-03-07 12:52:00,51.0,39.0,-100.00,WSW,249,9.0,14.0,63,-99.99,,,-99.99,,2013-03-07 20:52:00,
2013-03-07 13:01:00,51.0,37.0,-100.00,SW,234,8.0,15.0,59,-99.99,,,-99.99,,2013-03-07 21:01:00,
2013-03-07 13:11:00,51.0,35.0,-100.00,SW,232,9.0,17.0,55,-99.99,,,-99.99,,2013-03-07 21:11:00,
2013-03-07 13:22:00,51.0,35.0,-100.00,SW,234,11.0,15.0,54,-99.99,,,-99.99,,2013-03-07 21:22:00,
2013-03-07 13:32:00,51.0,35.0,-100.00,WSW,237,10.0,16.0,55,-99.99,,,-99.99,,2013-03-07 21:32:00,
2013-03-07 13:42:00,51.0,35.0,-100.00,WSW,237,9.0,15.0,55,-99.99,,,-99.99,,2013-03-07 21:42:00,
2013-03-07 13:52:00,51.0,36.0,-100.00,SW,233,10.0,17.0,57,-99.99,,,-99.99,,2013-03-07 21:52:00,
2013-03-07 14:01:00,50.0,36.0,-100.00,SW,235,11.0,17.0,59,-99.99,,,-99.99,,2013-03-07 22:01:00,
2013-03-07 14:11:00,50.0,37.0,-100.00,SW,230,11.0,18.0,61,-99.99,,,-99.99,,2013-03-07 22:11:00,
2013-03-07 14:22:00,49.0,37.0,-100.00,SW,228,12.0,18.0,63,-99.99,,,-99.99,,2013-03-07 22:22:00,
2013-03-07 14:32:00,50.0,39.0,-100.00,WSW,245,11.0,12.0,65,-99.99,,,-99.99,,2013-03-07 22:32:00,
2013-03-07 14:42:00,50.0,38.0,-100.00,SW,226,8.0,16.0,63,-99.99,,,-99.99,,2013-03-07 22:42:00,
2013-03-07 14:52:00,50.0,37.0,-100.00,SW,226,10.0,18.0,61,-99.99,,,-99.99,,2013-03-07 22:52:00,
2013-03-07 15:01:00,50.0,37.0,-100.00,SW,226,10.0,18.0,61,-99.99,,,-99.99,,2013-03-07 23:01:00,
2013-03-07 15:12:00,50.0,38.0,-100.00,SW,229,11.0,17.0,62,-99.99,,,-99.99,,2013-03-07 23:12:00,
2013-03-07 15:21:00,49.0,37.0,-100.00,SW,232,12.0,16.0,63,-99.99,,,-99.99,,2013-03-07 23:21:00,
2013-03-07 15:32:00,49.0,36.0,-100.00,SW,235,11.0,17.0,60,-99.99,,,-99.99,,2013-03-07 23:32:00,
2013-03-07 15:42:00,49.0,35.0,-100.00,WSW,249,10.0,14.0,59,-99.99,,,-99.99,,2013-03-07 23:42:00,
2013-03-07 15:52:00,49.0,35.0,-100.00,WSW,247,8.0,14.0,59,-99.99,,,-99.99,,2013-03-07 23:52:00,
2013-03-07 16:02:00,49.0,35.0,-100.00,WSW,247,8.0,14.0,59,-99.99,,,-99.99,,2013-03-08 00:02:00,
2013-03-07 16:11:00,48.0,35.0,-100.00,WSW,249,7.0,12.0,60,-99.99,,,-99.99,,2013-03-08 00:11:00,
2013-03-07 16:22:00,48.0,35.0,-100.00,WSW,256,8.0,15.0,60,-99.99,,,-99.99,,2013-03-08 00:22:00,
2013-03-07 16:42:00,48.0,36.0,-100.00,WSW,256,9.0,12.0,63,-99.99,,,-99.99,,2013-03-08 00:42:00,
2013-03-07 16:52:00,47.0,36.0,-100.00,WSW,258,7.0,11.0,65,-99.99,,,-99.99,,2013-03-08 00:52:00,
2013-03-07 17:01:00,47.0,37.0,-100.00,West,277,7.0,9.0,67,-99.99,,,-99.99,,2013-03-08 01:01:00,
2013-03-07 17:11:00,47.0,37.0,-100.00,West,272,5.0,8.0,69,-99.99,,,-99.99,,2013-03-08 01:11:00,
2013-03-07 17:21:00,47.0,38.0,-100.00,West,267,5.0,8.0,70,-99.99,,,-99.99,,2013-03-08 01:21:00,
2013-03-07 17:32:00,47.0,38.0,-100.00,West,268,4.0,7.0,71,-99.99,,,-99.99,,2013-03-08 01:32:00,
2013-03-07 17:42:00,46.0,37.0,-100.00,West,274,4.0,8.0,72,-99.99,,,-99.99,,2013-03-08 01:42:00,
2013-03-07 17:51:00,46.0,38.0,-100.00,West,275,4.0,8.0,73,-99.99,,,-99.99,,2013-03-08 01:51:00,
2013-03-07 18:01:00,45.0,38.0,-100.00,West,270,4.0,7.0,75,-99.99,,,-99.99,,2013-03-08 02:01:00,
2013-03-07 18:11:00,45.0,38.0,-100.00,West,280,4.0,7.0,77,-99.99,,,-99.99,,2013-03-08 02:11:00,
2013-03-07 18:21:00,45.0,38.0,-100.00,WNW,282,4.0,5.0,77,-99.99,,,-99.99,,2013-03-08 02:21:00,
2013-03-07 18:31:00,44.0,38.0,-100.00,WNW,289,2.0,5.0,79,-99.99,,,-99.99,,2013-03-08 02:31:00,
2013-03-07 18:41:00,44.0,38.0,-100.00,West,277,2.0,4.0,80,-99.99,,,-99.99,,2013-03-08 02:41:00,
2013-03-07 18:52:00,44.0,39.0,-100.00,West,262,3.0,5.0,82,-99.99,,,-99.99,,2013-03-08 02:52:00,
2013-03-07 19:01:00,44.0,39.0,-100.00,West,261,3.0,5.0,83,-99.99,,,-99.99,,2013-03-08 03:01:00,
2013-03-07 19:11:00,44.0,39.0,-100.00,West,277,3.0,3.0,83,-99.99,,,-99.99,,2013-03-08 03:11:00,
2013-03-07 19:22:00,43.0,38.0,-100.00,NE,35,1.0,3.0,83,-99.99,,,-99.99,,2013-03-08 03:22:00,
2013-03-07 19:32:00,42.0,38.0,-100.00,ENE,57,2.0,4.0,84,-99.99,,,-99.99,,2013-03-08 03:32:00,
2013-03-07 19:42:00,43.0,39.0,-100.00,NE,38,2.0,3.0,85,-99.99,,,-99.99,,2013-03-08 03:42:00,
2013-03-07 19:52:00,43.0,38.0,-100.00,NNE,19,1.0,3.0,83,-99.99,,,-99.99,,2013-03-08 03:52:00,
2013-03-07 20:01:00,43.0,38.0,-100.00,NNE,19,1.0,3.0,83,-99.99,,,-99.99,,2013-03-08 04:01:00,
2013-03-07 20:11:00,43.0,38.0,-100.00,NE,44,2.0,3.0,83,-99.99,,,-99.99,,2013-03-08 04:11:00,
2013-03-07 20:21:00,42.0,38.0,-100.00,NE,49,2.0,4.0,85,-99.99,,,-99.99,,2013-03-08 04:21:00,
2013-03-07 20:31:00,43.0,39.0,-100.00,NNE,20,3.0,4.0,85,-99.99,,,-99.99,,2013-03-08 04:31:00,
2013-03-07 20:42:00,43.0,38.0,-100.00,NE,51,2.0,3.0,84,-99.99,,,-99.99,,2013-03-08 04:42:00,
2013-03-07 20:51:00,42.0,38.0,-100.00,ENE,65,2.0,3.0,85,-99.99,,,-99.99,,2013-03-08 04:51:00,
2013-03-07 21:01:00,42.0,38.0,-100.00,ENE,66,1.0,4.0,85,-99.99,,,-99.99,,2013-03-08 05:01:00,
2013-03-07 21:12:00,42.0,38.0,-100.00,ENE,60,2.0,4.0,84,-99.99,,,-99.99,,2013-03-08 05:12:00,
2013-03-07 21:22:00,42.0,37.0,-100.00,ENE,65,2.0,4.0,82,-99.99,,,-99.99,,2013-03-08 05:22:00,
2013-03-07 21:32:00,42.0,36.0,-100.00,ENE,74,1.0,5.0,80,-99.99,,,-99.99,,2013-03-08 05:32:00,
2013-03-07 21:42:00,43.0,37.0,-100.00,ENE,77,3.0,5.0,79,-99.99,,,-99.99,,2013-03-08 05:42:00,
2013-03-07 21:52:00,43.0,36.0,-100.00,East,79,3.0,6.0,77,-99.99,,,-99.99,,2013-03-08 05:52:00,
2013-03-07 22:01:00,43.0,36.0,-100.00,East,95,3.0,4.0,77,-99.99,,,-99.99,,2013-03-08 06:01:00,
2013-03-07 22:11:00,43.0,36.0,-100.00,ENE,72,2.0,4.0,77,-99.99,,,-99.99,,2013-03-08 06:11:00,
2013-03-07 22:21:00,43.0,36.0,-100.00,ENE,73,3.0,4.0,77,-99.99,,,-99.99,,2013-03-08 06:21:00,
2013-03-07 22:31:00,43.0,37.0,-100.00,ENE,65,3.0,5.0,78,-99.99,,,-99.99,,2013-03-08 06:31:00,
2013-03-07 22:42:00,43.0,37.0,-100.00,ENE,65,3.0,5.0,78,-99.99,,,-99.99,,2013-03-08 06:42:00,
2013-03-07 22:51:00,44.0,38.0,-100.00,ESE,121,3.0,7.0,78,-99.99,,,-99.99,,2013-03-08 06:51:00,
2013-03-07 23:01:00,44.0,38.0,-100.00,ESE,121,3.0,7.0,78,-99.99,,,-99.99,,2013-03-08 07:01:00,
2013-03-07 23:11:00,44.0,38.0,-100.00,SE,145,3.0,7.0,78,-99.99,,,-99.99,,2013-03-08 07:11:00,
2013-03-07 23:21:00,44.0,38.0,-100.00,SSE,148,4.0,9.0,80,-99.99,,,-99.99,,2013-03-08 07:21:00,
2013-03-07 23:31:00,44.0,39.0,-100.00,SE,143,3.0,6.0,83,-99.99,,,-99.99,,2013-03-08 07:31:00,
2013-03-07 23:41:00,44.0,39.0,-100.00,SE,143,3.0,6.0,83,-99.99,,,-99.99,,2013-03-08 07:41:00,
2013-03-07 23:51:00,43.0,40.0,-100.00,SSE,155,2.0,6.0,89,-99.99,,,-99.99,,2013-03-08 07:51:00,